Time;durP1;ratioP1;P1;durP2;ratioP2;P2;SDS_P1;SDS_P2;PMS_P1;PMS_P2;Temp;Humidity;BMP_temperature;BMP_pressure;BME280_temperature;BME280_humidity;BME280_pressure;Samples;Min_cycle;Max_cycle;Signal;HPM_P1;HPM_P2
2021/07/01 00:02:24;;;;;;;6.57;1.85;;;691.30;1356.80;;;;;;5092005;28;20055;-72
2021/07/01 00:04:50;;;;;;;10.20;2.50;;;691.30;1356.80;;;;;;5092279;28;20032;-72
2021/07/01 00:07:16;;;;;;;8.18;1.85;;;691.30;1356.80;;;;;;5092110;28;20419;-72
2021/07/01 00:09:42;;;;;;;7.40;2.25;;;691.30;1356.80;;;;;;5091655;28;20024;-72
2021/07/01 00:12:08;;;;;;;10.65;2.03;;;691.20;1382.40;;;;;;5093865;28;20195;-70
2021/07/01 00:14:35;;;;;;;7.63;2.17;;;666.50;1382.40;;;;;;5092423;28;20024;-72
2021/07/01 00:17:01;;;;;;;7.68;2.38;;;666.40;1382.40;;;;;;5092798;28;20031;-70
2021/07/01 00:19:27;;;;;;;21.52;2.95;;;666.40;1408.00;;;;;;5093828;28;20021;-71
2021/07/01 00:21:53;;;;;;;8.80;2.00;;;666.40;1382.40;;;;;;5093815;28;20504;-72
2021/07/01 00:24:19;;;;;;;13.90;2.33;;;666.30;1408.00;;;;;;5093466;28;20052;-71
2021/07/01 00:26:45;;;;;;;10.32;2.65;;;666.30;1408.00;;;;;;5093729;28;20024;-71
2021/07/01 00:29:11;;;;;;;6.35;1.88;;;666.20;1408.00;;;;;;5093732;28;20020;-71
2021/07/01 00:31:37;;;;;;;10.27;1.80;;;666.10;1408.00;;;;;;5093681;28;20137;-71
2021/07/01 00:34:03;;;;;;;7.03;2.20;;;666.10;1408.00;;;;;;5093676;28;20051;-71
2021/07/01 00:36:29;;;;;;;9.90;2.70;;;666.10;1433.60;;;;;;5092341;28;20024;-71
2021/07/01 00:38:55;;;;;;;6.85;2.20;;;666.10;1433.60;;;;;;5093522;28;20028;-72
2021/07/01 00:41:21;;;;;;;11.60;2.33;;;666.00;1433.60;;;;;;5093483;28;20027;-72
2021/07/01 00:43:47;;;;;;;4.35;2.00;;;666.00;1433.60;;;;;;5093455;28;20024;-71
2021/07/01 00:46:14;;;;;;;6.60;2.05;;;665.90;1433.60;;;;;;5093696;28;20136;-71
2021/07/01 00:48:40;;;;;;;8.00;1.83;;;665.80;1433.60;;;;;;5093426;28;20110;-72
2021/07/01 00:51:05;;;;;;;7.80;2.05;;;665.70;1459.20;;;;;;5093465;28;20099;-72
2021/07/01 00:53:32;;;;;;;4.00;1.73;;;665.70;1459.20;;;;;;5093575;28;20353;-72
2021/07/01 00:56:00;;;;;;;9.18;2.15;;;665.70;1459.20;;;;;;5093315;28;20024;-72
2021/07/01 00:58:25;;;;;;;9.00;2.72;;;665.70;1459.20;;;;;;5096971;28;20353;-71
2021/07/01 01:01:06;;;;;;;5.82;1.90;;;665.70;1459.20;;;;;;5097723;28;20035;-72
2021/07/01 01:03:35;;;;;;;7.28;2.15;;;665.70;1484.80;;;;;;5097714;28;20468;-71
2021/07/01 01:06:02;;;;;;;7.65;2.38;;;665.60;1459.20;;;;;;5097560;28;20040;-72
2021/07/01 01:08:28;;;;;;;7.10;2.28;;;665.60;1484.80;;;;;;5096059;28;20020;-71
2021/07/01 01:10:55;;;;;;;6.50;2.50;;;665.60;1484.80;;;;;;5097290;28;20077;-71
2021/07/01 01:13:24;;;;;;;5.55;1.80;;;665.60;1484.80;;;;;;5097287;28;20027;-71
2021/07/01 01:16:01;;;;;;;8.32;2.03;;;665.60;1484.80;;;;;;5095925;28;20024;-71
2021/07/01 01:18:28;;;;;;;9.52;2.00;;;665.60;1459.20;;;;;;5096350;28;20015;-71
2021/07/01 01:20:56;;;;;;;30.17;3.35;;;640.90;1459.20;;;;;;5097434;28;20157;-71
2021/07/01 01:23:24;;;;;;;16.98;2.85;;;640.70;1484.80;;;;;;5096795;28;20488;-72
2021/07/01 01:25:52;;;;;;;22.23;3.30;;;640.60;1510.40;;;;;;5097005;28;20032;-72
2021/07/01 01:28:18;;;;;;;12.98;2.47;;;640.60;1587.20;;;;;;5096941;28;20476;-71
2021/07/01 01:30:45;;;;;;;11.30;2.47;;;640.50;1587.20;;;;;;5097254;28;20063;-71
2021/07/01 01:33:11;;;;;;;12.30;2.80;;;640.20;1638.40;;;;;;5097140;28;20095;-71
2021/07/01 01:35:38;;;;;;;6.32;2.15;;;640.10;1638.40;;;;;;5096887;28;20530;-71
2021/07/01 01:38:10;;;;;;;8.60;2.38;;;615.30;1638.40;;;;;;5096773;28;20020;-71
2021/07/01 01:40:36;;;;;;;8.30;2.50;;;640.00;1664.00;;;;;;5096755;28;20469;-71
2021/07/01 01:43:02;;;;;;;6.00;2.30;;;640.10;1638.40;;;;;;5096950;28;20055;-71
2021/07/01 01:45:28;;;;;;;12.80;2.85;;;640.20;1638.40;;;;;;5096820;28;20134;-71
2021/07/01 01:47:54;;;;;;;7.68;2.78;;;640.20;1612.80;;;;;;5096635;28;20508;-71
2021/07/01 01:50:21;;;;;;;9.10;2.75;;;640.20;1612.80;;;;;;5096506;28;20431;-71
2021/07/01 01:52:48;;;;;;;10.35;2.70;;;640.30;1612.80;;;;;;5096471;28;20024;-70
2021/07/01 01:55:15;;;;;;;8.90;2.40;;;640.30;1638.40;;;;;;5096294;28;20414;-71
2021/07/01 01:57:46;;;;;;;5.13;2.25;;;640.30;1638.40;;;;;;5096432;28;20453;-71
2021/07/01 02:00:14;;;;;;;6.70;2.83;;;640.30;1612.80;;;;;;5096668;28;20472;-71
2021/07/01 02:02:40;;;;;;;9.18;2.45;;;640.30;1612.80;;;;;;5096557;28;20047;-70
2021/07/01 02:05:07;;;;;;;7.82;2.08;;;640.30;1638.40;;;;;;5094861;28;20391;-71
2021/07/01 02:07:34;;;;;;;4.97;2.42;;;640.10;1612.80;;;;;;5096452;28;20016;-71
2021/07/01 02:10:01;;;;;;;6.43;2.25;;;640.10;1612.80;;;;;;5095297;28;20480;-72
2021/07/01 02:12:29;;;;;;;8.85;2.47;;;640.10;1638.40;;;;;;5096425;28;20421;-71
2021/07/01 02:14:55;;;;;;;5.05;2.03;;;640.10;1638.40;;;;;;5096312;28;20032;-71
2021/07/01 02:17:21;;;;;;;5.13;2.28;;;640.00;1638.40;;;;;;5096268;28;20050;-71
2021/07/01 02:19:46;;;;;;;6.82;1.90;;;640.00;1638.40;;;;;;5095971;28;20055;-71
2021/07/01 02:22:13;;;;;;;8.23;1.65;;;640.00;1612.80;;;;;;5096262;28;20107;-71
2021/07/01 02:24:39;;;;;;;6.25;1.85;;;640.00;1638.40;;;;;;5095587;28;20174;-71
2021/07/01 02:27:05;;;;;;;6.32;2.17;;;615.30;1638.40;;;;;;5095807;28;20111;-70
2021/07/01 02:29:31;;;;;;;9.07;1.98;;;615.30;1638.40;;;;;;5096073;28;20536;-71
2021/07/01 02:31:57;;;;;;;7.55;2.20;;;615.20;1638.40;;;;;;5095998;28;20115;-71
2021/07/01 02:34:22;;;;;;;6.68;2.00;;;615.10;1664.00;;;;;;5095725;28;20377;-71
2021/07/01 02:36:49;;;;;;;6.60;2.47;;;615.00;1664.00;;;;;;5095899;28;20099;-71
2021/07/01 02:39:14;;;;;;;15.00;3.05;;;615.00;1664.00;;;;;;5095685;28;20028;-71
2021/07/01 02:41:40;;;;;;;10.07;2.70;;;615.10;1664.00;;;;;;5095755;28;20111;-71
2021/07/01 02:44:06;;;;;;;8.65;2.30;;;615.10;1664.00;;;;;;5095386;28;20430;-72
2021/07/01 02:46:32;;;;;;;7.90;2.50;;;615.20;1664.00;;;;;;5095536;28;20056;-72
2021/07/01 02:48:58;;;;;;;7.90;2.17;;;615.20;1664.00;;;;;;5095362;28;20050;-72
2021/07/01 02:51:24;;;;;;;6.55;2.30;;;615.20;1638.40;;;;;;5095395;28;20028;-72
2021/07/01 02:53:50;;;;;;;8.85;2.05;;;615.10;1638.40;;;;;;5095612;28;20095;-72
2021/07/01 02:56:18;;;;;;;4.97;2.60;;;615.10;1638.40;;;;;;5095244;28;20406;-71
2021/07/01 02:58:44;;;;;;;4.40;2.25;;;615.00;1638.40;;;;;;5095249;28;20055;-71
2021/07/01 03:01:09;;;;;;;8.10;2.42;;;615.00;1664.00;;;;;;5095466;28;20051;-71
2021/07/01 03:03:35;;;;;;;13.27;2.60;;;615.00;1664.00;;;;;;5095104;28;20099;-71
2021/07/01 03:06:01;;;;;;;6.43;2.50;;;615.00;1664.00;;;;;;5095026;28;20047;-71
2021/07/01 03:08:27;;;;;;;9.90;2.60;;;615.00;1664.00;;;;;;5093787;28;20472;-71
2021/07/01 03:10:53;;;;;;;11.95;2.55;;;615.00;1664.00;;;;;;5095322;28;20024;-71
2021/07/01 03:13:19;;;;;;;10.57;2.70;;;614.90;1664.00;;;;;;5094905;28;20365;-71
2021/07/01 03:15:45;;;;;;;19.15;8.93;;;614.90;1689.60;;;;;;5094891;28;20024;-71
2021/07/01 03:18:11;;;;;;;16.05;10.23;;;614.90;1689.60;;;;;;5095135;28;20142;-70
2021/07/01 03:20:37;;;;;;;9.23;5.07;;;614.90;1689.60;;;;;;5095101;28;20028;-70
2021/07/01 03:23:03;;;;;;;8.88;3.67;;;614.90;1664.00;;;;;;5094870;28;20039;-71
2021/07/01 03:25:29;;;;;;;6.90;3.70;;;614.90;1664.00;;;;;;5094617;28;20463;-71
2021/07/01 03:27:56;;;;;;;7.57;3.15;;;614.90;1664.00;;;;;;5094867;28;20119;-71
2021/07/01 03:30:23;;;;;;;8.57;3.50;;;614.80;1689.60;;;;;;5094564;28;20049;-71
2021/07/01 03:32:49;;;;;;;12.02;2.70;;;614.70;1689.60;;;;;;5094569;28;20508;-71
2021/07/01 03:35:14;;;;;;;12.02;3.00;;;614.70;1689.60;;;;;;5094796;28;20059;-71
2021/07/01 03:37:40;;;;;;;14.10;2.83;;;614.60;1689.60;;;;;;5094403;28;20503;-71
2021/07/01 03:40:10;;;;;;;4.40;2.38;;;614.60;1689.60;;;;;;5094988;28;20052;-71
2021/07/01 03:42:36;;;;;;;8.23;2.60;;;614.60;1689.60;;;;;;5094337;28;20465;-71
2021/07/01 03:45:04;;;;;;;5.35;2.10;;;614.60;1689.60;;;;;;5094233;28;20042;-71
2021/07/01 03:47:30;;;;;;;5.25;1.80;;;614.60;1689.60;;;;;;5094718;28;20052;-71
2021/07/01 03:49:56;;;;;;;11.13;2.10;;;614.60;1664.00;;;;;;5094305;28;20507;-71
2021/07/01 03:52:21;;;;;;;9.73;2.60;;;614.60;1664.00;;;;;;5094147;28;20027;-71
2021/07/01 03:54:47;;;;;;;3.78;1.52;;;614.60;1689.60;;;;;;5094174;28;20016;-70
2021/07/01 03:57:13;;;;;;;62.45;5.28;;;614.60;1664.00;;;;;;5094060;28;20035;-71
2021/07/01 03:59:40;;;;;;;21.33;2.38;;;614.60;1664.00;;;;;;5094151;28;20016;-71
2021/07/01 04:02:07;;;;;;;14.98;2.08;;;614.40;1689.60;;;;;;5094319;28;20047;-72
2021/07/01 04:04:33;;;;;;;9.85;1.88;;;614.40;1689.60;;;;;;5093918;28;20028;-71
2021/07/01 04:06:58;;;;;;;6.00;1.25;;;614.40;1689.60;;;;;;5093965;28;20074;-71
2021/07/01 04:09:24;;;;;;;8.38;1.60;;;614.40;1664.00;;;;;;5093936;28;20035;-71
2021/07/01 04:11:50;;;;;;;6.88;1.35;;;614.40;1689.60;;;;;;5094174;28;20055;-71
2021/07/01 04:14:18;;;;;;;2.65;1.40;;;614.40;1689.60;;;;;;5092638;28;20169;-70
2021/07/01 04:16:45;;;;;;;4.95;1.52;;;589.70;1689.60;;;;;;5093792;28;20384;-71
2021/07/01 04:19:12;;;;;;;6.35;1.58;;;614.40;1689.60;;;;;;5093737;28;20098;-71
2021/07/01 04:21:38;;;;;;;10.80;2.05;;;614.40;1664.00;;;;;;5093992;28;20487;-71
2021/07/01 04:24:05;;;;;;;6.78;3.20;;;589.70;1664.00;;;;;;5093523;28;20052;-71
2021/07/01 04:26:31;;;;;;;8.65;2.22;;;614.40;1664.00;;;;;;5093739;28;20480;-70
2021/07/01 04:28:57;;;;;;;22.83;2.83;;;589.70;1664.00;;;;;;5093656;28;20104;-71
2021/07/01 04:31:22;;;;;;;17.25;1.90;;;589.70;1664.00;;;;;;5093486;28;20047;-71
2021/07/01 04:33:49;;;;;;;26.85;2.10;;;589.60;1664.00;;;;;;5093526;28;20473;-71
2021/07/01 04:36:15;;;;;;;8.95;1.60;;;589.60;1638.40;;;;;;5093576;28;20038;-71
2021/07/01 04:38:41;;;;;;;7.97;1.55;;;589.60;1638.40;;;;;;5093826;28;20422;-71
2021/07/01 04:41:07;;;;;;;9.82;1.90;;;589.70;1638.40;;;;;;5093560;28;20082;-71
2021/07/01 04:43:33;;;;;;;6.25;1.48;;;589.60;1638.40;;;;;;5093515;28;20357;-71
2021/07/01 04:45:59;;;;;;;4.53;1.50;;;589.60;1638.40;;;;;;5093688;28;20043;-71
2021/07/01 04:48:26;;;;;;;10.50;1.60;;;589.70;1638.40;;;;;;5093460;28;20384;-72
2021/07/01 04:50:52;;;;;;;5.38;1.90;;;589.60;1638.40;;;;;;5093524;28;20112;-72
2021/07/01 04:53:17;;;;;;;6.22;1.63;;;589.60;1664.00;;;;;;5093686;28;20020;-71
2021/07/01 04:55:43;;;;;;;3.88;0.90;;;589.70;1638.40;;;;;;5093522;28;20362;-71
2021/07/01 04:58:09;;;;;;;4.63;1.48;;;589.70;1612.80;;;;;;5093670;28;20077;-71
2021/07/01 05:00:35;;;;;;;4.28;1.15;;;614.40;1638.40;;;;;;5093360;28;20020;-71
2021/07/01 05:03:02;;;;;;;2.90;1.20;;;589.70;1638.40;;;;;;5093686;28;20032;-71
2021/07/01 05:05:28;;;;;;;3.95;1.35;;;589.60;1638.40;;;;;;5093308;28;20089;-71
2021/07/01 05:07:54;;;;;;;11.80;1.33;;;589.60;1638.40;;;;;;5093615;28;20026;-71
2021/07/01 05:10:20;;;;;;;4.00;1.00;;;589.50;1638.40;;;;;;5093274;28;20024;-71
2021/07/01 05:12:46;;;;;;;7.63;1.55;;;589.60;1638.40;;;;;;5093245;28;20027;-71
2021/07/01 05:15:12;;;;;;;8.77;1.13;;;589.50;1638.40;;;;;;5093253;28;20059;-71
2021/07/01 05:17:38;;;;;;;3.35;0.95;;;589.40;1638.40;;;;;;5093201;28;20107;-71
2021/07/01 05:20:07;;;;;;;7.18;1.40;;;589.50;1638.40;;;;;;5093219;28;20503;-71
2021/07/01 05:22:34;;;;;;;21.73;1.75;;;589.50;1638.40;;;;;;5093427;28;20035;-71
2021/07/01 05:25:00;;;;;;;62.55;4.55;;;589.50;1638.40;;;;;;5092917;28;20048;-71
2021/07/01 05:27:26;;;;;;;11.00;1.17;;;589.50;1612.80;;;;;;5093407;28;20022;-71
2021/07/01 05:29:52;;;;;;;5.20;1.17;;;589.40;1638.40;;;;;;5093217;28;20020;-72
2021/07/01 05:32:18;;;;;;;3.25;0.70;;;589.40;1612.80;;;;;;5093490;28;20490;-71
2021/07/01 05:34:44;;;;;;;2.22;0.80;;;589.50;1612.80;;;;;;5093404;28;20038;-71
2021/07/01 05:37:10;;;;;;;10.90;1.20;;;589.50;1612.80;;;;;;5093416;28;20472;-72
2021/07/01 05:39:36;;;;;;;2.70;0.70;;;589.40;1612.80;;;;;;5093030;28;20024;-71
2021/07/01 05:42:02;;;;;;;4.68;1.13;;;589.50;1612.80;;;;;;5092885;28;20081;-71
2021/07/01 05:44:28;;;;;;;2.72;0.80;;;589.50;1612.80;;;;;;5094703;28;20074;-71
2021/07/01 05:46:54;;;;;;;20.40;1.35;;;589.60;1587.20;;;;;;5096610;28;20052;-71
2021/07/01 05:49:20;;;;;;;27.40;1.50;;;589.60;1587.20;;;;;;5096601;28;20028;-71
2021/07/01 05:51:49;;;;;;;90.40;5.60;;;589.60;1587.20;;;;;;5096564;28;20043;-72
2021/07/01 05:56:40;;;;;;;6.35;0.90;;;614.40;1587.20;;;;;;5096749;28;20106;-72
2021/07/01 05:59:08;;;;;;;5.88;0.90;;;614.40;1561.60;;;;;;5096746;28;20019;-72
2021/07/01 06:01:37;;;;;;;2.88;0.95;;;614.40;1561.60;;;;;;5096349;28;20024;-72
2021/07/01 06:04:04;;;;;;;3.17;1.00;;;614.50;1587.20;;;;;;5096148;28;20066;-72
2021/07/01 06:06:34;;;;;;;2.53;1.10;;;614.50;1587.20;;;;;;5096170;28;20118;-71
2021/07/01 06:09:02;;;;;;;31.35;11.45;;;614.60;1587.20;;;;;;5096522;28;20124;-72
2021/07/01 06:11:28;;;;;;;18.02;4.10;;;614.60;1561.60;;;;;;5096097;28;20522;-72
2021/07/01 06:13:55;;;;;;;2.13;1.00;;;614.80;1561.60;;;;;;5095880;28;20028;-72
2021/07/01 06:16:26;;;;;;;9.45;1.00;;;614.60;1561.60;;;;;;5095881;28;20027;-71
2021/07/01 06:18:54;;;;;;;3.38;0.88;;;614.70;1561.60;;;;;;5093263;28;20361;-72
2021/07/01 06:21:21;;;;;;;4.63;1.08;;;614.60;1561.60;;;;;;5096247;28;20503;-72
2021/07/01 06:23:47;;;;;;;14.90;2.28;;;614.60;1561.60;;;;;;5095815;28;20052;-72
2021/07/01 06:26:15;;;;;;;13.52;1.90;;;614.70;1561.60;;;;;;5096014;28;20032;-72
2021/07/01 06:28:43;;;;;;;10.48;1.70;;;614.60;1561.60;;;;;;5095823;28;20032;-72
2021/07/01 06:31:10;;;;;;;6.28;1.05;;;614.70;1561.60;;;;;;5095679;28;20541;-72
2021/07/01 06:33:42;;;;;;;8.77;1.42;;;614.70;1561.60;;;;;;5095948;28;20028;-72
2021/07/01 06:36:11;;;;;;;7.80;1.13;;;614.90;1536.00;;;;;;5095281;28;20044;-72
2021/07/01 06:38:42;;;;;;;5.95;1.13;;;614.90;1536.00;;;;;;5093301;28;20088;-72
2021/07/01 06:41:09;;;;;;;14.98;1.55;;;614.80;1561.60;;;;;;5095410;28;20372;-72
2021/07/01 06:43:35;;;;;;;8.80;4.55;;;614.90;1536.00;;;;;;5094271;28;20392;-72
2021/07/01 06:46:04;;;;;;;8.68;2.67;;;614.90;1536.00;;;;;;5095057;28;20028;-71
2021/07/01 06:48:30;;;;;;;9.57;4.68;;;615.00;1536.00;;;;;;5090943;28;20021;-72
2021/07/01 06:50:59;;;;;;;4.82;1.83;;;615.10;1510.40;;;;;;5095559;28;20054;-76
2021/07/01 06:53:27;;;;;;;6.25;1.40;;;615.20;1510.40;;;;;;5095442;28;20027;-72
2021/07/01 06:55:53;;;;;;;8.15;1.48;;;640.00;1484.80;;;;;;5094996;28;20105;-72
2021/07/01 06:58:20;;;;;;;6.72;1.52;;;640.20;1484.80;;;;;;5095393;28;20109;-75
2021/07/01 07:00:47;;;;;;;12.35;1.30;;;640.40;1459.20;;;;;;5095223;28;20503;-72
2021/07/01 07:03:19;;;;;;;5.82;1.30;;;640.30;1433.60;;;;;;5095228;28;20016;-72
2021/07/01 07:05:48;;;;;;;4.60;1.00;;;640.10;1459.20;;;;;;5095344;28;20139;-73
2021/07/01 07:08:15;;;;;;;8.95;1.08;;;640.20;1459.20;;;;;;5095081;28;20051;-72
2021/07/01 07:10:43;;;;;;;4.55;0.70;;;640.20;1459.20;;;;;;5095393;28;20365;-73
2021/07/01 07:13:10;;;;;;;7.97;1.92;;;640.20;1459.20;;;;;;5094948;28;20098;-72
2021/07/01 07:15:36;;;;;;;5.70;0.90;;;640.20;1459.20;;;;;;5094894;28;20052;-73
2021/07/01 07:18:05;;;;;;;2.67;1.02;;;640.20;1459.20;;;;;;5095205;28;20094;-73
2021/07/01 07:20:32;;;;;;;11.43;3.75;;;640.50;1433.60;;;;;;5094684;28;20028;-72
2021/07/01 07:23:03;;;;;;;5.20;1.25;;;640.50;1433.60;;;;;;5091512;28;20012;-72
2021/07/01 07:25:35;;;;;;;1.45;0.90;;;640.60;1408.00;;;;;;5094259;28;20050;-72
2021/07/01 07:28:06;;;;;;;29.38;26.17;;;640.60;1433.60;;;;;;5092466;28;20107;-73
2021/07/01 07:30:33;;;;;;;38.50;33.35;;;640.70;1408.00;;;;;;5093401;28;20055;-72
2021/07/01 07:33:07;;;;;;;24.42;13.25;;;640.70;1408.00;;;;;;5094816;28;20066;-71
2021/07/01 07:35:34;;;;;;;6.78;1.80;;;640.80;1408.00;;;;;;5094146;28;20032;-73
2021/07/01 07:38:01;;;;;;;5.47;1.15;;;665.70;1408.00;;;;;;5091057;28;20012;-72
2021/07/01 07:40:27;;;;;;;12.05;1.48;;;665.80;1408.00;;;;;;5093306;28;20024;-71
2021/07/01 07:42:54;;;;;;;17.98;1.70;;;665.80;1408.00;;;;;;5092348;28;20412;-72
2021/07/01 07:45:20;;;;;;;7.88;0.98;;;665.80;1382.40;;;;;;5089681;28;20123;-72
2021/07/01 07:47:46;;;;;;;4.82;0.80;;;665.60;1382.40;;;;;;5093742;28;20077;-72
2021/07/01 07:50:15;;;;;;;2.15;0.85;;;640.90;1382.40;;;;;;5091541;28;20025;-72
2021/07/01 07:52:51;;;;;;;12.05;0.93;;;665.60;1382.40;;;;;;5092911;28;20020;-71
2021/07/01 07:55:21;;;;;;;36.17;2.47;;;665.70;1408.00;;;;;;5093595;28;20020;-72
2021/07/01 07:57:54;;;;;;;16.90;1.70;;;665.80;1356.80;;;;;;5091179;28;20028;-72
2021/07/01 08:00:21;;;;;;;9.80;1.27;;;665.80;1382.40;;;;;;5094177;28;20037;-72
2021/07/01 08:03:00;;;;;;;8.20;1.10;;;666.00;1356.80;;;;;;5094262;28;20059;-72
2021/07/01 08:05:29;;;;;;;6.20;1.30;;;666.00;1356.80;;;;;;5093578;28;20066;-71
2021/07/01 08:07:57;;;;;;;15.15;1.08;;;666.10;1331.20;;;;;;5093509;28;20028;-72
2021/07/01 08:10:32;;;;;;;20.05;2.05;;;666.00;1356.80;;;;;;5093959;28;20384;-72
2021/07/01 08:13:05;;;;;;;7.85;0.95;;;666.00;1356.80;;;;;;5094253;28;20066;-72
2021/07/01 08:15:33;;;;;;;2.85;0.60;;;666.00;1356.80;;;;;;5093855;28;20020;-71
2021/07/01 08:18:00;;;;;;;7.70;0.70;;;666.00;1331.20;;;;;;5094127;28;20032;-72
2021/07/01 08:20:26;;;;;;;13.95;1.00;;;666.20;1331.20;;;;;;5093708;28;20487;-70
2021/07/01 08:22:54;;;;;;;14.35;1.17;;;666.20;1331.20;;;;;;5093605;28;20024;-72
2021/07/01 08:25:21;;;;;;;20.58;1.48;;;666.10;1331.20;;;;;;5093754;28;20040;-72
2021/07/01 08:27:50;;;;;;;23.17;2.30;;;666.30;1305.60;;;;;;5093924;28;20093;-74
2021/07/01 08:30:20;;;;;;;16.10;1.20;;;666.30;1331.20;;;;;;5093108;28;20493;-73
2021/07/01 08:32:47;;;;;;;67.82;3.20;;;666.30;1305.60;;;;;;5093060;28;20031;-75
2021/07/01 08:35:15;;;;;;;13.85;1.00;;;666.40;1305.60;;;;;;5091713;28;20427;-71
2021/07/01 08:37:46;;;;;;;24.25;1.48;;;666.40;1280.00;;;;;;5093091;28;20074;-73
2021/07/01 08:40:17;;;;;;;10.48;2.00;;;666.40;1305.60;;;;;;5092907;28;20020;-73
2021/07/01 08:42:43;;;;;;;21.00;3.03;;;666.40;1305.60;;;;;;5093102;28;20410;-77
2021/07/01 08:45:12;;;;;;;9.50;1.48;;;691.20;1305.60;;;;;;5093414;28;20028;-72
2021/07/01 08:47:43;;;;;;;5.50;0.70;;;691.20;1331.20;;;;;;5093431;28;20024;-74
2021/07/01 08:50:17;;;;;;;7.88;1.15;;;691.40;1305.60;;;;;;5093641;28;20430;-73
2021/07/01 08:53:03;;;;;;;9.23;1.00;;;691.40;1305.60;;;;;;5093320;28;20029;-77
2021/07/01 08:55:29;;;;;;;13.40;2.40;;;691.40;1305.60;;;;;;5093182;28;20111;-73
2021/07/01 08:57:57;;;;;;;4.00;0.88;;;691.30;1280.00;;;;;;5093324;28;20028;-75
2021/07/01 09:00:25;;;;;;;4.97;0.90;;;691.40;1280.00;;;;;;5093201;28;20024;-73
2021/07/01 09:03:06;;;;;;;18.10;1.63;;;691.40;1280.00;;;;;;5093332;28;20024;-73
2021/07/01 09:05:36;;;;;;;16.50;1.20;;;691.40;1254.40;;;;;;5090723;28;20028;-72
2021/07/01 09:08:14;;;;;;;3.58;1.15;;;691.40;1305.60;;;;;;5093682;28;20395;-71
2021/07/01 09:10:51;;;;;;;8.25;1.92;;;691.50;1280.00;;;;;;5092280;28;20028;-71
2021/07/01 09:13:20;;;;;;;5.85;0.73;;;691.50;1305.60;;;;;;5092728;28;20039;-70
2021/07/01 09:15:48;;;;;;;12.95;1.30;;;691.50;1254.40;;;;;;5093014;28;20074;-71
2021/07/01 09:18:15;;;;;;;24.17;2.00;;;691.60;1280.00;;;;;;5093989;28;20028;-71
2021/07/01 09:20:42;;;;;;;19.58;1.42;;;691.60;1305.60;;;;;;5094685;28;20078;-71
2021/07/01 09:23:10;;;;;;;12.23;1.85;;;691.60;1280.00;;;;;;5095083;28;20031;-70
2021/07/01 09:25:37;;;;;;;14.55;0.98;;;691.70;1280.00;;;;;;5095055;28;20477;-72
2021/07/01 09:28:04;;;;;;;20.75;2.85;;;691.70;1254.40;;;;;;5095163;28;20077;-71
2021/07/01 09:30:32;;;;;;;17.38;4.90;;;691.70;1280.00;;;;;;5095410;28;20411;-70
2021/07/01 09:33:06;;;;;;;6.32;3.83;;;691.60;1254.40;;;;;;5095321;28;20028;-71
2021/07/01 09:35:34;;;;;;;21.27;3.30;;;691.70;1228.80;;;;;;5095108;28;20543;-71
2021/07/01 09:38:08;;;;;;;12.88;7.70;;;691.70;1228.80;;;;;;5095660;28;20361;-71
2021/07/01 09:40:36;;;;;;;4.28;0.80;;;691.80;1228.80;;;;;;5097207;28;20056;-70
2021/07/01 09:43:04;;;;;;;3.47;0.70;;;691.90;1228.80;;;;;;5097077;28;20024;-71
2021/07/01 09:45:33;;;;;;;6.60;1.00;;;692.00;1203.20;;;;;;5096620;28;20430;-70
2021/07/01 09:48:14;;;;;;;7.07;0.80;;;692.00;1177.60;;;;;;5096918;28;20430;-71
2021/07/01 09:50:45;;;;;;;6.38;1.48;;;692.00;1203.20;;;;;;5096960;28;20024;-71
2021/07/01 09:53:27;;;;;;;15.25;1.00;;;692.00;1203.20;;;;;;5096880;28;20016;-71
2021/07/01 09:55:54;;;;;;;5.28;0.80;;;691.90;1177.60;;;;;;5096521;28;20058;-71
2021/07/01 09:58:22;;;;;;;4.70;0.70;;;691.80;1203.20;;;;;;5096725;28;20024;-71
2021/07/01 10:00:49;;;;;;;5.35;1.02;;;691.80;1177.60;;;;;;5096691;28;20024;-71
2021/07/01 10:03:16;;;;;;;4.88;0.93;;;691.70;1177.60;;;;;;5096290;28;20477;-72
2021/07/01 10:05:41;;;;;;;17.10;1.10;;;691.80;1177.60;;;;;;5096573;28;20480;-71
2021/07/01 10:08:07;;;;;;;11.48;1.08;;;691.90;1203.20;;;;;;5096576;28;20035;-71
2021/07/01 10:10:50;;;;;;;1.38;0.55;;;691.90;1177.60;;;;;;5096569;28;20392;-71
2021/07/01 10:13:19;;;;;;;25.23;1.50;;;692.00;1126.40;;;;;;5096508;28;20499;-72
2021/07/01 10:15:47;;;;;;;15.40;1.48;;;692.00;1177.60;;;;;;5096061;28;20024;-71
2021/07/01 10:18:15;;;;;;;8.43;1.60;;;692.00;1152.00;;;;;;5096138;28;20027;-71
2021/07/01 10:20:43;;;;;;;3.55;0.70;;;692.00;1177.60;;;;;;5096028;28;20031;-72
2021/07/01 10:23:33;;;;;;;13.25;1.67;;;692.10;1203.20;;;;;;5095820;28;20043;-71
2021/07/01 10:26:09;;;;;;;5.88;0.90;;;692.10;1177.60;;;;;;5095840;28;20468;-71
2021/07/01 10:28:37;;;;;;;6.03;0.80;;;716.80;1177.60;;;;;;5095942;28;20024;-70
2021/07/01 10:31:13;;;;;;;5.57;2.95;;;692.00;1152.00;;;;;;5095085;28;20066;-71
2021/07/01 10:33:41;;;;;;;7.38;1.50;;;692.10;1152.00;;;;;;5095821;28;20027;-70
2021/07/01 10:36:21;;;;;;;6.25;1.02;;;716.80;1203.20;;;;;;5095766;28;20032;-71
2021/07/01 10:38:50;;;;;;;3.03;1.00;;;716.80;1177.60;;;;;;5095785;28;20023;-71
2021/07/01 10:41:31;;;;;;;3.00;0.80;;;716.80;1177.60;;;;;;5095601;28;20024;-71
2021/07/01 10:43:58;;;;;;;5.75;0.70;;;716.90;1152.00;;;;;;5095850;28;20055;-71
2021/07/01 10:46:42;;;;;;;2.78;0.60;;;716.80;1152.00;;;;;;5095737;28;20430;-71
2021/07/01 10:49:08;;;;;;;0.80;0.50;;;716.90;1152.00;;;;;;5095487;28;20016;-70
2021/07/01 10:51:35;;;;;;;2.88;0.77;;;716.90;1126.40;;;;;;5095753;28;20031;-71
2021/07/01 10:54:15;;;;;;;3.42;0.57;;;716.80;1152.00;;;;;;5094168;28;20020;-71
2021/07/01 10:56:43;;;;;;;3.17;0.50;;;716.80;1152.00;;;;;;5095641;28;20099;-70
2021/07/01 10:59:13;;;;;;;6.65;0.95;;;717.00;1126.40;;;;;;5095272;28;20066;-71
2021/07/01 11:01:45;;;;;;;3.05;0.70;;;717.10;1152.00;;;;;;5095324;28;20034;-71
2021/07/01 11:04:13;;;;;;;8.88;0.63;;;717.00;1152.00;;;;;;5095239;28;20448;-71
2021/07/01 11:06:41;;;;;;;4.53;0.70;;;717.20;1152.00;;;;;;5095121;28;20036;-71
2021/07/01 11:09:09;;;;;;;6.25;1.30;;;717.20;1152.00;;;;;;5095924;28;20078;-71
2021/07/01 11:11:37;;;;;;;3.50;0.60;;;717.20;1177.60;;;;;;5095058;28;20480;-71
2021/07/01 11:14:14;;;;;;;2.78;0.68;;;717.20;1126.40;;;;;;5095008;28;20488;-70
2021/07/01 11:16:45;;;;;;;8.07;1.10;;;717.20;1152.00;;;;;;5095220;28;20020;-71
2021/07/01 11:19:19;;;;;;;3.80;0.68;;;717.30;1152.00;;;;;;5095300;28;20107;-71
2021/07/01 11:21:52;;;;;;;5.47;0.70;;;717.30;1152.00;;;;;;5094964;28;20052;-70
2021/07/01 11:24:20;;;;;;;5.53;0.60;;;717.30;1152.00;;;;;;5094637;28;20044;-71
2021/07/01 11:26:48;;;;;;;6.28;0.73;;;717.30;1126.40;;;;;;5093408;28;20066;-71
2021/07/01 11:29:15;;;;;;;4.38;0.70;;;717.20;1152.00;;;;;;5095330;28;20028;-71
2021/07/01 11:31:49;;;;;;;4.78;0.73;;;717.30;1152.00;;;;;;5094660;28;20099;-71
2021/07/01 11:34:17;;;;;;;2.33;0.52;;;717.30;1126.40;;;;;;5094673;28;20182;-71
2021/07/01 11:36:54;;;;;;;2.45;0.50;;;717.30;1126.40;;;;;;5094583;28;20060;-71
2021/07/01 11:39:25;;;;;;;3.55;0.68;;;717.30;1152.00;;;;;;5094582;28;20103;-70
2021/07/01 11:41:51;;;;;;;2.22;0.52;;;717.30;1126.40;;;;;;5093452;28;20031;-71
2021/07/01 11:44:19;;;;;;;3.92;0.93;;;717.50;1126.40;;;;;;5094524;28;20030;-71
2021/07/01 11:46:45;;;;;;;2.72;0.90;;;717.60;1126.40;;;;;;5094605;28;20043;-70
2021/07/01 11:49:12;;;;;;;4.20;0.73;;;717.60;1100.80;;;;;;5094352;28;20099;-70
2021/07/01 11:51:39;;;;;;;2.95;0.93;;;717.70;1100.80;;;;;;5094273;28;20050;-71
2021/07/01 11:54:06;;;;;;;2.95;0.70;;;717.70;1100.80;;;;;;5094189;28;20062;-71
2021/07/01 11:56:53;;;;;;;4.13;0.80;;;717.70;1126.40;;;;;;5094181;28;20035;-71
2021/07/01 11:59:20;;;;;;;2.85;0.52;;;742.40;1126.40;;;;;;5094071;28;20031;-71
2021/07/01 12:01:46;;;;;;;3.10;0.70;;;742.40;1126.40;;;;;;5094137;28;20078;-71
2021/07/01 12:04:13;;;;;;;1.45;0.45;;;742.40;1152.00;;;;;;5094142;28;20103;-71
2021/07/01 12:06:53;;;;;;;3.30;0.45;;;742.40;1100.80;;;;;;5094019;28;20028;-71
2021/07/01 12:09:20;;;;;;;5.25;0.70;;;742.50;1100.80;;;;;;5094297;28;20032;-71
2021/07/01 12:12:14;;;;;;;3.85;1.10;;;742.50;1126.40;;;;;;5094206;28;20031;-71
2021/07/01 12:15:06;;;;;;;;;;;742.50;1100.80;;;;;;5091973;28;20458;-71
2021/07/01 12:18:03;;;;;;;4.88;0.63;;;742.60;1075.20;;;;;;5090402;28;20280;-70
2021/07/01 12:20:51;;;;;;;0.93;0.60;;;742.60;1100.80;;;;;;5094112;28;20099;-71
2021/07/01 12:23:17;;;;;;;4.95;2.75;;;742.60;1100.80;;;;;;5093551;28;20434;-72
2021/07/01 12:25:52;;;;;;;3.70;0.85;;;742.60;1075.20;;;;;;5094030;28;20027;-71